Time;durP1;ratioP1;P1;durP2;ratioP2;P2;SDS_P1;SDS_P2;PMS_P1;PMS_P2;Temp;Humidity;BMP_temperature;BMP_pressure;BME280_temperature;BME280_humidity;BME280_pressure;Samples;Min_cycle;Max_cycle;Signal;HPM_P1;HPM_P2
2021/11/26 00:01:54;;;;;;;;;;;3.40;99.90;;;;;;2603558;54;20042;31
2021/11/26 00:04:32;;;;;;;48.97;31.15;;;3.40;99.90;;;;;;2621899;46;19980;31
2021/11/26 00:07:08;;;;;;;50.70;33.05;;;3.50;99.90;;;;;;2621914;46;19964;31
2021/11/26 00:09:44;;;;;;;48.40;33.13;;;3.40;99.90;;;;;;2621835;46;22417;31
2021/11/26 00:12:18;;;;;;;48.65;32.50;;;3.40;99.90;;;;;;2701911;39;22392;31
2021/11/26 00:15:08;;;;;;;50.70;32.53;;;3.40;99.90;;;;;;2621863;46;20754;31
2021/11/26 00:20:36;;;;;;;52.22;33.38;;;3.40;99.90;;;;;;2701460;39;20528;31
2021/11/26 00:23:15;;;;;;;49.40;31.10;;;3.40;99.90;;;;;;2603412;54;20042;31
2021/11/26 00:25:49;;;;;;;52.30;31.83;;;3.40;99.90;;;;;;2621856;46;20027;31
2021/11/26 00:28:27;;;;;;;49.72;33.15;;;3.40;99.90;;;;;;2603386;54;20727;31
2021/11/26 00:31:01;;;;;;;51.03;32.00;;;3.40;99.90;;;;;;2603134;54;20698;31
2021/11/26 00:33:40;;;;;;;52.22;34.42;;;3.30;99.90;;;;;;2602904;54;20967;31
2021/11/26 00:36:16;;;;;;;53.83;31.95;;;3.40;99.90;;;;;;2603475;54;20796;31
2021/11/26 00:38:57;;;;;;;51.70;33.25;;;3.40;99.90;;;;;;2603327;54;20039;31
2021/11/26 00:44:09;;;;;;;47.83;30.47;;;3.30;99.90;;;;;;2603121;54;20752;31
2021/11/26 00:46:44;;;;;;;50.80;32.53;;;3.40;99.90;;;;;;2603144;54;21371;31
2021/11/26 00:49:23;;;;;;;51.60;31.75;;;3.40;99.90;;;;;;2603273;54;20030;31
2021/11/26 00:51:57;;;;;;;51.55;33.22;;;3.40;99.90;;;;;;2603304;54;20744;31
2021/11/26 00:54:34;;;;;;;49.65;31.15;;;3.40;99.90;;;;;;2621485;46;22281;31
2021/11/26 00:57:10;;;;;;;49.88;33.55;;;3.40;99.90;;;;;;2621532;46;20362;31
2021/11/26 00:59:48;;;;;;;51.10;31.25;;;3.40;99.90;;;;;;2701756;39;21448;31
2021/11/26 01:02:23;;;;;;;52.90;31.35;;;3.40;99.90;;;;;;2602963;54;21440;31
2021/11/26 01:05:03;;;;;;;46.97;28.83;;;3.40;99.90;;;;;;2700861;39;20377;31
2021/11/26 01:07:40;;;;;;;46.47;30.43;;;3.40;99.90;;;;;;2603193;54;20046;31
2021/11/26 01:10:17;;;;;;;50.40;30.85;;;3.40;99.90;;;;;;2603108;54;20030;31
2021/11/26 01:12:52;;;;;;;52.63;31.02;;;3.40;99.90;;;;;;2603113;54;20801;31
2021/11/26 01:15:29;;;;;;;49.40;31.92;;;3.40;99.90;;;;;;2603283;54;20892;31
2021/11/26 01:18:07;;;;;;;48.35;30.50;;;3.50;99.90;;;;;;2602898;54;20659;31
2021/11/26 01:20:47;;;;;;;46.50;28.90;;;3.40;99.90;;;;;;2602324;54;20089;31
2021/11/26 01:23:23;;;;;;;46.58;29.33;;;3.40;99.90;;;;;;2602976;54;20044;31
2021/11/26 01:25:59;;;;;;;47.53;30.25;;;3.40;99.90;;;;;;2603410;54;20869;31
2021/11/26 01:28:36;;;;;;;53.05;33.65;;;3.40;99.90;;;;;;2772046;31;20577;31
2021/11/26 01:31:11;;;;;;;;;;;3.40;99.90;;;;;;2603485;54;20033;31
2021/11/26 01:33:46;;;;;;;48.03;31.02;;;3.40;99.90;;;;;;2622064;46;20852;31
2021/11/26 01:36:24;;;;;;;47.63;30.42;;;3.40;99.90;;;;;;2602567;54;20853;31
2021/11/26 01:39:03;;;;;;;50.00;30.05;;;3.40;99.90;;;;;;2603167;54;20022;31
2021/11/26 01:41:42;;;;;;;49.03;31.83;;;3.50;99.90;;;;;;2621161;46;20602;31
2021/11/26 01:44:18;;;;;;;50.88;32.20;;;3.40;99.90;;;;;;2701581;39;21296;31
2021/11/26 01:46:53;;;;;;;55.13;32.80;;;3.40;99.90;;;;;;2602402;54;20143;31
2021/11/26 01:49:32;;;;;;;52.33;32.92;;;3.40;99.90;;;;;;2603205;54;20859;31
2021/11/26 01:52:12;;;;;;;50.17;32.38;;;3.40;99.90;;;;;;2603334;54;20030;31
2021/11/26 01:54:52;;;;;;;48.97;31.30;;;3.40;99.90;;;;;;2772947;31;20491;31
2021/11/26 01:57:30;;;;;;;49.00;30.35;;;3.40;99.90;;;;;;2602234;54;20458;31
2021/11/26 02:00:10;;;;;;;53.75;32.50;;;3.50;99.90;;;;;;2602335;54;20574;31
2021/11/26 02:02:45;;;;;;;53.40;34.65;;;3.50;99.90;;;;;;2602339;54;20034;31
2021/11/26 02:05:24;;;;;;;55.80;35.50;;;3.40;99.90;;;;;;2603116;54;20048;31
2021/11/26 02:08:02;;;;;;;55.13;31.90;;;3.50;99.90;;;;;;2621541;46;20042;31
2021/11/26 02:10:38;;;;;;;54.17;34.70;;;3.50;99.90;;;;;;2621600;46;20022;31
2021/11/26 02:13:13;;;;;;;55.33;34.92;;;3.50;99.90;;;;;;2602921;54;20116;31
2021/11/26 02:15:49;;;;;;;55.45;34.33;;;3.50;99.90;;;;;;2621228;46;20042;31
2021/11/26 02:18:24;;;;;;;52.80;34.17;;;3.40;99.90;;;;;;2621456;46;22382;31
2021/11/26 02:21:03;;;;;;;52.78;35.65;;;3.40;99.90;;;;;;2700846;39;20512;31
2021/11/26 02:23:40;;;;;;;53.15;34.28;;;3.40;99.90;;;;;;2602172;54;20748;31
2021/11/26 02:26:15;;;;;;;55.92;34.97;;;3.40;99.90;;;;;;2602637;54;20148;31
2021/11/26 02:28:52;;;;;;;50.40;32.60;;;3.40;99.90;;;;;;2603022;54;20034;31
2021/11/26 02:31:28;;;;;;;49.05;32.47;;;3.40;99.90;;;;;;2621164;46;20034;31
2021/11/26 02:34:05;;;;;;;50.15;32.38;;;3.40;99.90;;;;;;2621331;46;20037;31
2021/11/26 02:36:45;;;;;;;50.25;32.55;;;3.50;99.90;;;;;;2602610;54;20013;31
2021/11/26 02:39:20;;;;;;;51.92;34.08;;;3.40;99.90;;;;;;2602740;54;20171;31
2021/11/26 02:41:58;;;;;;;54.30;34.30;;;3.50;99.90;;;;;;2603007;54;20868;31
2021/11/26 02:44:33;;;;;;;54.30;34.07;;;3.40;99.90;;;;;;2602748;54;19961;31
2021/11/26 02:47:15;;;;;;;51.20;33.53;;;3.50;99.90;;;;;;2602286;54;21204;31
2021/11/26 02:49:52;;;;;;;46.47;32.05;;;3.50;99.90;;;;;;2602113;54;20100;31
2021/11/26 02:52:37;;;;;;;54.30;33.72;;;3.40;99.90;;;;;;2602213;54;20831;31
2021/11/26 02:55:16;;;;;;;56.28;34.30;;;3.40;99.90;;;;;;2620994;46;21013;31
2021/11/26 02:57:52;;;;;;;45.70;31.50;;;3.40;99.90;;;;;;2602192;54;21132;31
2021/11/26 03:00:28;;;;;;;54.20;34.60;;;3.40;99.90;;;;;;2602090;54;20030;31
2021/11/26 03:03:04;;;;;;;49.80;31.75;;;3.30;99.90;;;;;;2602712;54;20033;31
2021/11/26 03:05:42;;;;;;;50.90;31.37;;;3.40;99.90;;;;;;2602657;54;20831;31
2021/11/26 03:08:16;;;;;;;45.30;31.42;;;3.40;99.90;;;;;;2701127;39;20606;31
2021/11/26 03:11:02;;;;;;;48.13;30.13;;;3.40;99.90;;;;;;2772187;31;20517;31
2021/11/26 03:13:39;;;;;;;51.58;32.10;;;3.40;99.90;;;;;;2602718;54;20042;31
2021/11/26 03:16:13;;;;;;;48.78;32.95;;;3.30;99.90;;;;;;2602874;54;20031;31
2021/11/26 03:18:49;;;;;;;50.92;34.00;;;3.30;99.90;;;;;;2602733;54;20027;31
2021/11/26 03:21:25;;;;;;;49.97;33.00;;;3.40;99.90;;;;;;2621282;46;20836;31
2021/11/26 03:23:59;;;;;;;48.47;33.15;;;3.30;99.90;;;;;;2601998;54;20838;31
2021/11/26 03:26:37;;;;;;;51.38;34.10;;;3.40;99.90;;;;;;2602699;54;20905;31
2021/11/26 03:29:12;;;;;;;48.80;31.65;;;3.40;99.90;;;;;;2602620;54;20064;31
2021/11/26 03:31:50;;;;;;;48.92;31.98;;;3.30;99.90;;;;;;2602161;54;20905;31
2021/11/26 03:34:26;;;;;;;49.75;32.17;;;3.40;99.90;;;;;;2616033;47;20034;31
2021/11/26 03:37:04;;;;;;;48.85;32.55;;;3.40;99.90;;;;;;2602650;54;20031;31
2021/11/26 03:39:43;;;;;;;52.65;31.80;;;3.40;99.90;;;;;;2602501;54;20022;31
2021/11/26 03:42:23;;;;;;;51.50;33.65;;;3.40;99.90;;;;;;2614373;47;20034;31
2021/11/26 03:44:58;;;;;;;50.50;32.70;;;3.40;99.90;;;;;;2602575;54;20034;31
2021/11/26 03:47:37;;;;;;;46.60;30.50;;;3.40;99.90;;;;;;2602604;54;20813;31
2021/11/26 03:50:14;;;;;;;47.97;30.80;;;3.40;99.90;;;;;;2621074;47;20031;31
2021/11/26 03:52:50;;;;;;;52.70;32.22;;;3.40;99.90;;;;;;2602458;54;20875;31
2021/11/26 03:55:28;;;;;;;49.00;32.28;;;3.40;99.90;;;;;;2602813;54;20648;31
2021/11/26 03:58:05;;;;;;;48.17;29.95;;;3.40;99.90;;;;;;2602605;54;20022;31
2021/11/26 04:00:44;;;;;;;50.05;31.40;;;3.40;99.90;;;;;;2602518;54;20027;31
2021/11/26 04:03:20;;;;;;;52.13;32.43;;;3.40;99.90;;;;;;2620498;47;20030;31
2021/11/26 04:05:56;;;;;;;46.92;30.80;;;3.40;99.90;;;;;;2602567;54;20033;31
2021/11/26 04:08:31;;;;;;;45.35;29.90;;;3.40;99.90;;;;;;2602504;54;20826;31
2021/11/26 04:11:09;;;;;;;41.63;28.13;;;3.40;99.90;;;;;;2620610;47;20882;31
2021/11/26 04:13:47;;;;;;;46.50;30.52;;;3.40;99.90;;;;;;2602575;54;20867;31
2021/11/26 04:16:21;;;;;;;45.05;29.05;;;3.50;99.90;;;;;;2602428;54;20027;31
2021/11/26 04:19:03;;;;;;;;;;;3.50;99.90;;;;;;2602959;54;20813;31
2021/11/26 04:21:40;;;;;;;48.50;31.57;;;3.50;99.90;;;;;;2603012;54;20799;31
2021/11/26 04:24:18;;;;;;;41.70;28.60;;;3.50;99.90;;;;;;2603105;54;20049;31
2021/11/26 04:27:01;;;;;;;43.95;28.98;;;3.50;99.90;;;;;;2603465;54;20745;31
2021/11/26 04:29:39;;;;;;;47.57;29.90;;;3.50;99.90;;;;;;2602468;54;19942;31
2021/11/26 04:32:15;;;;;;;40.58;27.25;;;3.40;99.90;;;;;;2602302;54;20027;31
2021/11/26 04:34:56;;;;;;;41.90;29.13;;;3.50;99.90;;;;;;2701864;39;20482;31
2021/11/26 04:37:33;;;;;;;41.83;27.75;;;3.50;99.90;;;;;;2603395;54;20239;31
2021/11/26 04:40:12;;;;;;;49.47;31.13;;;3.50;99.90;;;;;;2602434;54;21007;31
2021/11/26 04:42:52;;;;;;;45.40;29.15;;;3.50;99.90;;;;;;2603447;54;20783;31
2021/11/26 04:45:28;;;;;;;44.00;29.35;;;3.50;99.90;;;;;;2603107;54;20034;31
2021/11/26 04:48:03;;;;;;;38.47;25.83;;;3.50;99.90;;;;;;2603278;54;20049;31
2021/11/26 04:50:43;;;;;;;45.70;30.05;;;3.60;99.90;;;;;;2621547;46;20034;31
2021/11/26 04:53:22;;;;;;;45.67;30.00;;;3.60;99.90;;;;;;2602509;54;20829;31
2021/11/26 04:55:57;;;;;;;44.40;30.20;;;3.50;99.90;;;;;;2603536;54;20880;31
2021/11/26 04:58:39;;;;;;;42.65;29.15;;;3.70;99.90;;;;;;2603130;54;20103;31
2021/11/26 05:01:18;;;;;;;43.63;29.17;;;3.60;99.90;;;;;;2602590;54;21020;31
2021/11/26 05:03:54;;;;;;;42.03;27.77;;;3.60;99.90;;;;;;2602448;54;20052;31
2021/11/26 05:06:36;;;;;;;41.95;27.90;;;3.60;99.90;;;;;;2621978;46;21000;31
2021/11/26 05:09:11;;;;;;;42.28;27.85;;;3.60;99.90;;;;;;2603219;54;20042;31
2021/11/26 05:11:52;;;;;;;41.70;26.23;;;3.60;99.90;;;;;;2602922;54;20037;31
2021/11/26 05:14:31;;;;;;;40.92;27.40;;;3.60;99.90;;;;;;2603247;54;20048;31
2021/11/26 05:17:07;;;;;;;46.05;29.70;;;3.60;99.90;;;;;;2603425;54;19989;31
2021/11/26 05:19:43;;;;;;;45.85;29.02;;;3.60;99.90;;;;;;2701756;39;21252;31
2021/11/26 05:22:23;;;;;;;42.33;28.88;;;3.60;99.90;;;;;;2603209;54;20930;31
2021/11/26 05:24:59;;;;;;;42.47;28.00;;;3.70;99.90;;;;;;2603125;54;20038;31
2021/11/26 05:27:35;;;;;;;39.45;27.13;;;3.60;99.90;;;;;;2603227;54;20037;31
2021/11/26 05:30:10;;;;;;;43.85;27.58;;;3.60;99.90;;;;;;2603222;54;20914;31
2021/11/26 05:32:47;;;;;;;43.95;27.75;;;3.70;99.90;;;;;;2602386;54;20026;31
2021/11/26 05:35:26;;;;;;;40.85;27.70;;;3.70;99.90;;;;;;2602468;54;20088;31
2021/11/26 05:38:09;;;;;;;40.88;27.67;;;3.70;99.90;;;;;;2603282;54;20037;31
2021/11/26 05:40:46;;;;;;;40.83;27.75;;;3.60;99.90;;;;;;2603164;54;20925;31
2021/11/26 05:43:22;;;;;;;41.42;27.55;;;3.70;99.90;;;;;;2603344;54;20030;31
2021/11/26 05:46:02;;;;;;;43.83;29.40;;;3.70;99.90;;;;;;2603170;54;20862;31
2021/11/26 05:48:45;;;;;;;40.50;25.27;;;3.70;99.90;;;;;;2612079;46;21181;31
2021/11/26 05:51:21;;;;;;;41.22;28.65;;;3.70;99.90;;;;;;2603051;54;20387;31
2021/11/26 05:53:59;;;;;;;42.00;27.47;;;3.70;99.90;;;;;;2603338;54;20889;31
2021/11/26 05:56:35;;;;;;;38.42;26.17;;;3.70;99.90;;;;;;2603144;54;20886;31
2021/11/26 05:59:11;;;;;;;42.25;27.00;;;3.70;99.90;;;;;;2602953;54;20786;31
2021/11/26 06:01:46;;;;;;;38.30;26.05;;;3.70;99.90;;;;;;2603166;54;22193;31
2021/11/26 06:04:22;;;;;;;37.28;24.10;;;3.70;99.90;;;;;;2603289;54;20880;31
2021/11/26 06:07:00;;;;;;;43.85;26.52;;;3.80;99.90;;;;;;2602844;54;20120;31
2021/11/26 06:09:39;;;;;;;40.30;25.90;;;3.80;99.90;;;;;;2603176;54;20027;31
2021/11/26 06:12:15;;;;;;;42.47;26.92;;;3.80;99.90;;;;;;2603113;54;20885;31
2021/11/26 06:14:49;;;;;;;39.75;26.50;;;3.80;99.90;;;;;;2603292;54;20708;31
2021/11/26 06:17:27;;;;;;;42.65;26.65;;;3.80;99.90;;;;;;2603094;54;20026;31
2021/11/26 06:20:01;;;;;;;43.47;26.05;;;3.80;99.90;;;;;;2602991;54;20108;31
2021/11/26 06:22:37;;;;;;;42.10;27.65;;;3.80;99.90;;;;;;2628584;39;20339;31
2021/11/26 06:25:18;;;;;;;43.85;27.88;;;3.80;99.90;;;;;;2602993;54;20752;31
2021/11/26 06:27:54;;;;;;;42.65;28.20;;;3.80;99.90;;;;;;2602835;54;20030;31
2021/11/26 06:30:29;;;;;;;34.47;24.53;;;3.80;99.90;;;;;;2603152;54;20889;31
2021/11/26 06:33:05;;;;;;;41.40;27.93;;;3.80;99.90;;;;;;2602953;54;20022;31
2021/11/26 06:35:44;;;;;;;38.00;25.00;;;3.90;99.90;;;;;;2603042;54;20059;31
2021/11/26 06:38:20;;;;;;;45.30;29.70;;;3.90;99.90;;;;;;2602777;54;20271;31
2021/11/26 06:41:00;;;;;;;40.50;27.27;;;3.80;99.90;;;;;;2621403;46;20057;31
2021/11/26 06:43:49;;;;;;;40.97;27.67;;;3.90;99.90;;;;;;2602854;54;20030;31
2021/11/26 06:46:26;;;;;;;46.13;27.23;;;3.90;99.90;;;;;;2621424;46;20052;31
2021/11/26 06:49:02;;;;;;;45.40;30.80;;;4.00;99.90;;;;;;2621237;46;20089;31
2021/11/26 06:51:42;;;;;;;43.45;27.45;;;3.80;99.90;;;;;;2603146;54;20023;31
2021/11/26 06:54:20;;;;;;;45.10;28.00;;;3.80;99.90;;;;;;2602959;54;21137;31
2021/11/26 06:56:55;;;;;;;50.22;30.30;;;3.90;99.90;;;;;;2603134;54;21022;31
2021/11/26 06:59:34;;;;;;;39.45;25.95;;;3.80;99.90;;;;;;2602724;54;20053;31
2021/11/26 07:02:14;;;;;;;44.15;29.10;;;3.90;99.90;;;;;;2602897;54;20890;31
2021/11/26 07:04:50;;;;;;;44.50;27.90;;;3.90;99.90;;;;;;2602762;54;20030;31
2021/11/26 07:07:31;;;;;;;44.20;29.65;;;3.90;99.90;;;;;;2602730;54;20631;31
2021/11/26 07:10:10;;;;;;;43.58;29.65;;;3.90;99.90;;;;;;2621436;46;24073;31
2021/11/26 07:12:45;;;;;;;48.33;30.43;;;3.90;99.90;;;;;;2602866;54;20820;31
2021/11/26 07:15:24;;;;;;;35.72;25.08;;;3.90;99.90;;;;;;2621211;46;20048;31
2021/11/26 07:18:03;;;;;;;42.63;27.45;;;3.90;99.90;;;;;;2602086;54;20052;31
2021/11/26 07:20:40;;;;;;;42.28;29.83;;;3.90;99.90;;;;;;2602178;54;20914;31
2021/11/26 07:23:15;;;;;;;45.70;31.00;;;3.90;99.90;;;;;;2602920;54;20740;31
2021/11/26 07:25:52;;;;;;;41.87;27.53;;;3.90;99.90;;;;;;2621519;47;19943;31
2021/11/26 07:28:30;;;;;;;40.40;26.67;;;4.00;99.90;;;;;;2602442;54;20037;31
2021/11/26 07:31:09;;;;;;;49.85;31.17;;;4.00;99.90;;;;;;2701257;39;21465;31
2021/11/26 07:33:52;;;;;;;46.38;30.48;;;4.00;99.90;;;;;;2602966;54;20027;31
2021/11/26 07:36:32;;;;;;;46.03;29.27;;;4.10;99.90;;;;;;2601921;54;20049;31
2021/11/26 07:39:14;;;;;;;42.35;25.35;;;4.00;99.90;;;;;;2601900;54;20112;31
2021/11/26 07:41:52;;;;;;;39.92;25.75;;;4.00;99.90;;;;;;2771565;31;20576;31
2021/11/26 07:44:30;;;;;;;38.33;25.70;;;4.00;99.90;;;;;;2621406;47;20022;31
2021/11/26 07:47:11;;;;;;;40.47;27.45;;;4.00;99.90;;;;;;2602843;54;20053;31
2021/11/26 07:49:46;;;;;;;40.70;28.15;;;4.00;99.90;;;;;;2602863;54;22403;31
2021/11/26 07:52:21;;;;;;;37.78;23.98;;;4.10;99.90;;;;;;2602793;54;20023;31
2021/11/26 07:54:57;;;;;;;38.33;24.13;;;4.10;99.90;;;;;;2602631;54;20026;31
2021/11/26 07:57:35;;;;;;;39.20;26.40;;;4.10;99.90;;;;;;2603558;54;20349;31
2021/11/26 08:00:15;;;;;;;39.13;25.23;;;4.00;99.90;;;;;;2603699;54;20022;31
2021/11/26 08:03:01;;;;;;;38.00;26.65;;;4.00;99.90;;;;;;2603418;54;20025;31
2021/11/26 08:06:12;;;;;;;35.97;23.40;;;4.00;99.90;;;;;;2603596;54;20050;31
2021/11/26 08:09:01;;;;;;;44.67;28.90;;;4.10;99.90;;;;;;2603324;54;20027;31
2021/11/26 08:11:49;;;;;;;44.10;29.53;;;4.00;99.90;;;;;;2603370;54;20920;31
2021/11/26 08:17:32;;;;;;;48.13;28.47;;;4.10;99.90;;;;;;2720310;39;22446;31
2021/11/26 08:20:18;;;;;;;44.75;29.15;;;4.00;99.90;;;;;;2603557;54;20732;31
2021/11/26 08:23:03;;;;;;;41.30;26.17;;;4.00;99.90;;;;;;2621764;46;20054;31
2021/11/26 08:25:44;;;;;;;43.63;27.13;;;4.00;99.90;;;;;;2602583;54;20108;31
2021/11/26 08:28:28;;;;;;;43.22;27.38;;;4.10;99.90;;;;;;2701819;39;20497;31
2021/11/26 08:31:03;;;;;;;38.50;26.00;;;4.10;99.90;;;;;;2621753;46;20022;31
2021/11/26 08:33:39;;;;;;;41.38;26.15;;;4.10;99.90;;;;;;2621582;46;20949;31
2021/11/26 08:36:43;;;;;;;38.15;26.05;;;4.10;99.90;;;;;;2603513;54;20112;31
2021/11/26 08:39:19;;;;;;;43.20;27.33;;;4.10;99.90;;;;;;2603521;54;20027;31
2021/11/26 08:41:57;;;;;;;40.92;25.35;;;4.10;99.90;;;;;;2700979;39;20443;31
2021/11/26 08:44:50;;;;;;;40.13;26.00;;;4.20;99.90;;;;;;2621861;46;20053;31
2021/11/26 08:47:27;;;;;;;40.95;24.52;;;4.20;99.90;;;;;;2603194;54;19941;31
2021/11/26 08:50:09;;;;;;;40.47;25.60;;;4.20;99.90;;;;;;2603396;54;20741;31
2021/11/26 08:52:47;;;;;;;39.65;26.25;;;4.20;99.90;;;;;;2603366;54;20023;31
2021/11/26 08:55:27;;;;;;;47.42;27.17;;;4.20;99.90;;;;;;2603570;54;20895;31
2021/11/26 08:58:13;;;;;;;38.67;25.48;;;4.20;99.90;;;;;;2604447;46;20749;31
2021/11/26 09:00:52;;;;;;;41.58;26.88;;;4.20;99.90;;;;;;2603442;54;20812;31
2021/11/26 09:06:27;;;;;;;41.85;26.25;;;4.30;99.90;;;;;;2621148;46;19930;31
2021/11/26 09:09:17;;;;;;;43.45;27.58;;;4.30;99.90;;;;;;2602787;54;20923;31
2021/11/26 09:12:02;;;;;;;42.27;26.77;;;4.30;99.90;;;;;;2603083;54;20863;31
2021/11/26 09:14:54;;;;;;;40.70;25.50;;;4.40;99.90;;;;;;2603053;54;21082;31
2021/11/26 09:17:30;;;;;;;40.88;26.60;;;4.40;99.90;;;;;;2621529;46;20243;31
2021/11/26 09:20:11;;;;;;;40.67;26.67;;;4.50;99.90;;;;;;2602829;54;20763;31
2021/11/26 09:22:57;;;;;;;44.80;26.52;;;4.50;99.90;;;;;;2602393;54;20049;31
2021/11/26 09:28:54;;;;;;;42.45;27.30;;;4.50;99.90;;;;;;2603147;54;21145;31
2021/11/26 09:31:34;;;;;;;41.30;29.10;;;4.60;99.90;;;;;;2603236;54;20875;31
2021/11/26 09:34:22;;;;;;;43.50;29.40;;;4.60;99.90;;;;;;2621542;46;22460;31
2021/11/26 09:40:10;;;;;;;39.10;24.35;;;4.60;99.90;;;;;;2603251;54;20034;31
2021/11/26 09:43:06;;;;;;;35.58;23.15;;;4.70;99.90;;;;;;2603242;54;20920;31
2021/11/26 09:46:19;;;;;;;39.13;25.70;;;4.70;99.90;;;;;;2603006;54;20027;31
2021/11/26 09:49:00;;;;;;;45.03;27.67;;;4.70;99.90;;;;;;2602792;54;20899;31
2021/11/26 09:51:42;;;;;;;45.28;30.10;;;4.80;99.90;;;;;;2621028;46;19931;31
2021/11/26 09:54:33;;;;;;;38.17;25.23;;;4.80;99.90;;;;;;2602909;54;20380;31
2021/11/26 09:57:14;;;;;;;40.60;25.35;;;4.80;99.90;;;;;;2603077;54;20052;31
2021/11/26 10:00:06;;;;;;;40.97;25.92;;;4.80;99.90;;;;;;2602873;54;20038;31
2021/11/26 10:02:55;;;;;;;35.93;24.23;;;4.80;99.90;;;;;;2620928;46;20027;31
2021/11/26 10:06:05;;;;;;;35.33;23.15;;;4.80;99.90;;;;;;2603074;54;20588;31
2021/11/26 10:09:05;;;;;;;32.97;22.80;;;4.80;99.90;;;;;;2610766;46;20026;31
2021/11/26 10:14:35;;;;;;;34.75;23.10;;;4.90;99.90;;;;;;2603211;54;22421;31
2021/11/26 10:17:46;;;;;;;32.22;20.25;;;4.90;99.90;;;;;;2602768;54;20026;31
2021/11/26 10:20:28;;;;;;;31.15;22.10;;;4.90;99.90;;;;;;2620954;47;20761;31
2021/11/26 10:23:30;;;;;;;28.48;17.88;;;4.90;99.90;;;;;;2621506;46;22386;31
2021/11/26 10:26:28;;;;;;;30.10;19.95;;;4.90;99.90;;;;;;2621695;46;20892;31
2021/11/26 10:32:16;;;;;;;31.15;21.20;;;4.90;99.90;;;;;;2603075;54;20879;31
2021/11/26 10:35:11;;;;;;;30.85;20.55;;;4.90;99.90;;;;;;2606028;46;20065;31
2021/11/26 10:38:03;;;;;;;29.85;20.90;;;4.90;99.90;;;;;;2603061;54;20092;31
2021/11/26 10:40:49;;;;;;;25.20;16.20;;;4.90;99.90;;;;;;2602212;54;20875;31
2021/11/26 10:43:35;;;;;;;32.25;21.67;;;5.00;99.90;;;;;;2602013;54;20058;31
2021/11/26 11:01:10;;;;;;;25.85;18.25;;;5.10;99.90;;;;;;2602770;54;20756;31
2021/11/26 11:03:51;;;;;;;30.92;19.73;;;5.10;99.90;;;;;;2602469;54;20761;31
2021/11/26 11:06:31;;;;;;;30.77;20.42;;;5.10;99.90;;;;;;2602034;54;20799;31
2021/11/26 11:09:15;;;;;;;33.60;22.20;;;5.10;99.90;;;;;;2602928;54;22393;31
2021/11/26 11:11:59;;;;;;;34.35;20.83;;;5.10;99.90;;;;;;2603009;54;20998;31
2021/11/26 11:14:41;;;;;;;35.00;22.40;;;5.10;99.90;;;;;;2602002;54;20730;31
2021/11/26 11:17:20;;;;;;;35.88;22.42;;;5.10;99.90;;;;;;2610674;46;21635;31
2021/11/26 11:19:58;;;;;;;37.95;22.60;;;5.10;99.90;;;;;;2601948;54;20103;31
2021/11/26 11:22:39;;;;;;;28.40;19.55;;;5.10;99.90;;;;;;2602060;54;21017;31
2021/11/26 11:25:28;;;;;;;36.37;22.87;;;5.10;99.90;;;;;;2602708;54;20027;31
2021/11/26 11:28:03;;;;;;;33.13;22.25;;;5.10;99.90;;;;;;2602943;54;20027;31
2021/11/26 11:30:43;;;;;;;34.17;22.73;;;5.00;99.90;;;;;;2602856;54;20026;31
2021/11/26 11:33:24;;;;;;;35.25;22.67;;;5.00;99.90;;;;;;2603670;54;20056;31
2021/11/26 11:36:07;;;;;;;37.70;23.40;;;5.00;99.90;;;;;;2603492;54;20929;31
2021/11/26 11:38:47;;;;;;;36.75;21.63;;;5.00;99.90;;;;;;2603569;54;20257;31
2021/11/26 11:41:29;;;;;;;32.65;21.15;;;5.00;99.90;;;;;;2621908;46;20887;31
2021/11/26 11:44:04;;;;;;;34.90;22.88;;;5.00;99.90;;;;;;2603617;54;20896;31
2021/11/26 11:46:40;;;;;;;35.78;22.73;;;5.00;99.90;;;;;;2603510;54;20099;31
2021/11/26 11:49:25;;;;;;;35.67;24.55;;;5.00;99.90;;;;;;2603481;54;20022;31
2021/11/26 11:54:40;;;;;;;35.28;22.70;;;5.00;99.90;;;;;;2603614;54;20600;31
2021/11/26 11:57:28;;;;;;;38.30;23.77;;;5.00;99.90;;;;;;2603413;54;20835;31
2021/11/26 12:00:14;;;;;;;;;;;5.00;99.90;;;;;;2603620;54;20048;31
2021/11/26 12:02:58;;;;;;;35.30;22.55;;;5.00;99.90;;;;;;2621686;46;19941;31
2021/11/26 12:05:41;;;;;;;34.30;22.08;;;5.00;99.90;;;;;;2603235;54;20027;31
2021/11/26 12:08:17;;;;;;;34.40;21.52;;;4.90;99.90;;;;;;2773315;31;20653;31
2021/11/26 12:13:49;;;;;;;33.47;21.35;;;4.90;99.90;;;;;;2603526;54;20026;31
2021/11/26 12:16:48;;;;;;;;;;;;;;;;;;;;;
2021/11/26 12:19:27;;;;;;;38.03;23.42;;;5.00;99.90;;;;;;2603310;54;20987;31
2021/11/26 12:22:02;;;;;;;37.35;24.15;;;5.00;99.90;;;;;;2621549;46;20018;31
2021/11/26 12:24:44;;;;;;;43.03;24.58;;;5.00;99.90;;;;;;2621898;46;20033;31
2021/11/26 12:27:38;;;;;;;37.40;23.98;;;5.00;99.90;;;;;;2603411;54;20023;31
2021/11/26 12:30:23;;;;;;;38.88;24.02;;;5.00;99.90;;;;;;2603307;54;20128;31
2021/11/26 12:33:00;;;;;;;36.13;24.20;;;5.00;99.90;;;;;;2621725;46;20037;31
2021/11/26 12:35:36;;;;;;;44.80;24.90;;;5.00;99.90;;;;;;2603308;54;20030;31
2021/11/26 12:38:14;;;;;;;37.63;25.60;;;5.00;99.90;;;;;;2603333;54;20904;31
2021/11/26 12:40:48;;;;;;;44.60;28.93;;;5.10;99.90;;;;;;2621984;46;20730;31
2021/11/26 12:43:28;;;;;;;36.85;24.63;;;5.00;99.90;;;;;;2602801;54;22028;31
2021/11/26 12:46:07;;;;;;;39.10;26.88;;;5.10;99.90;;;;;;2602634;54;20037;31
2021/11/26 12:48:55;;;;;;;48.50;32.00;;;5.00;99.90;;;;;;2603638;54;22391;31
2021/11/26 12:51:27;;;;;;;42.10;28.00;;;5.10;99.90;;;;;;2603026;54;20045;31
2021/11/26 12:54:10;;;;;;;38.63;25.63;;;5.10;99.90;;;;;;2603452;54;21363;31
2021/11/26 12:56:49;;;;;;;45.78;26.58;;;5.00;99.90;;;;;;2603233;54;20033;31
2021/11/26 12:59:40;;;;;;;44.25;26.35;;;5.00;99.90;;;;;;2603506;54;20089;31
2021/11/26 13:02:26;;;;;;;41.55;25.15;;;5.00;99.90;;;;;;2603059;54;20040;31
2021/11/26 13:05:02;;;;;;;45.67;26.42;;;5.00;99.90;;;;;;2603300;54;20045;31
2021/11/26 13:07:46;;;;;;;42.78;26.92;;;5.00;99.90;;;;;;2602600;54;20099;31
2021/11/26 13:10:23;;;;;;;34.65;23.10;;;5.00;99.90;;;;;;2621656;46;20027;31
2021/11/26 13:13:00;;;;;;;38.45;25.65;;;5.00;99.90;;;;;;2603243;54;21420;31
2021/11/26 13:15:38;;;;;;;41.15;26.88;;;5.00;99.90;;;;;;2621428;46;21127;31
2021/11/26 13:18:19;;;;;;;29.88;21.02;;;5.10;99.90;;;;;;2621715;46;20049;31
2021/11/26 13:20:58;;;;;;;36.47;23.90;;;5.20;99.90;;;;;;2603285;54;20871;31
2021/11/26 13:23:34;;;;;;;43.93;26.37;;;5.20;99.90;;;;;;2603384;54;20285;31
2021/11/26 13:26:14;;;;;;;39.45;22.45;;;5.20;99.90;;;;;;2621691;46;20067;31
2021/11/26 13:28:54;;;;;;;43.00;26.40;;;5.20;99.90;;;;;;2621513;46;22421;31
2021/11/26 13:31:42;;;;;;;81.13;36.40;;;5.20;99.90;;;;;;2602832;54;20280;31
2021/11/26 13:34:22;;;;;;;50.33;28.50;;;5.20;99.90;;;;;;2603232;54;20030;31
2021/11/26 13:37:02;;;;;;;44.47;23.67;;;5.10;99.90;;;;;;2603097;54;20171;31
2021/11/26 13:39:41;;;;;;;41.38;25.30;;;5.10;99.90;;;;;;2603188;54;20033;31
2021/11/26 13:42:19;;;;;;;41.80;26.20;;;5.10;99.90;;;;;;2621659;46;20160;31
2021/11/26 13:44:57;;;;;;;40.17;24.23;;;5.00;99.90;;;;;;2603247;54;20837;31
2021/11/26 13:47:53;;;;;;;31.40;21.67;;;5.00;99.90;;;;;;2603143;54;20967;31
2021/11/26 13:50:31;;;;;;;36.35;22.27;;;5.00;99.90;;;;;;2603040;54;21552;31
2021/11/26 13:53:09;;;;;;;39.40;24.38;;;5.00;99.90;;;;;;2602848;54;20026;31
2021/11/26 13:56:03;;;;;;;37.75;22.85;;;5.00;99.90;;;;;;2621476;46;20101;31
2021/11/26 13:58:37;;;;;;;34.63;22.73;;;5.00;99.90;;;;;;2603248;54;20771;31
2021/11/26 14:01:15;;;;;;;37.30;23.98;;;5.10;99.90;;;;;;2603168;54;20026;31
2021/11/26 14:03:49;;;;;;;;;;;5.10;99.90;;;;;;2621483;46;21144;31
2021/11/26 14:06:32;;;;;;;37.65;23.15;;;5.00;99.90;;;;;;2602944;54;19946;31
2021/11/26 14:09:10;;;;;;;39.20;22.77;;;5.00;99.90;;;;;;2603108;54;20888;31
2021/11/26 14:11:47;;;;;;;31.85;21.00;;;5.00;99.90;;;;;;2602270;54;20272;31
2021/11/26 14:17:15;;;;;;;38.87;24.27;;;5.00;99.90;;;;;;2602876;54;20081;31
2021/11/26 14:19:56;;;;;;;37.22;24.35;;;5.00;99.90;;;;;;2621533;46;20958;31
2021/11/26 14:22:39;;;;;;;40.53;25.00;;;5.00;99.90;;;;;;2602276;54;21003;31
2021/11/26 14:25:17;;;;;;;39.13;24.60;;;5.00;99.90;;;;;;2602278;54;20766;31
2021/11/26 14:27:58;;;;;;;38.17;23.95;;;4.90;99.90;;;;;;2602931;54;20590;31
2021/11/26 14:30:52;;;;;;;37.80;22.60;;;4.90;99.90;;;;;;2602682;54;20633;31
2021/11/26 14:33:35;;;;;;;39.45;25.75;;;4.90;99.90;;;;;;2602849;54;20089;31
2021/11/26 14:36:12;;;;;;;37.15;24.70;;;4.90;99.90;;;;;;2603022;54;20157;31
2021/11/26 14:38:58;;;;;;;39.78;25.25;;;4.90;99.90;;;;;;2602942;54;20095;31
2021/11/26 14:41:42;;;;;;;46.35;25.92;;;4.80;99.90;;;;;;2621190;46;21156;31
2021/11/26 14:44:20;;;;;;;47.20;29.00;;;4.80;99.90;;;;;;2602155;54;20928;31